createdAt,value
2022-08-12T00:01:15.813Z,100733.38
2022-08-12T00:04:06.108Z,100722.97
2022-08-12T00:06:54.353Z,100727.50
2022-08-12T00:09:41.027Z,100724.19
2022-08-12T00:12:27.626Z,100731.44
2022-08-12T00:15:14.175Z,100723.63
2022-08-12T00:18:02.158Z,100726.38
2022-08-12T00:20:49.849Z,100721.28
2022-08-12T00:23:40.744Z,100713.50
2022-08-12T00:26:28.555Z,100707.47
2022-08-12T00:29:16.509Z,100712.84
2022-08-12T00:32:04.645Z,100711.25
2022-08-12T00:34:53.990Z,100701.75
2022-08-12T00:37:42.994Z,100703.69
2022-08-12T00:40:32.609Z,100704.94
2022-08-12T00:42:59.918Z,100702.50
2022-08-12T00:45:27.054Z,100697.41
2022-08-12T00:47:54.183Z,100695.75
2022-08-12T00:50:22.820Z,100700.25
2022-08-12T00:52:52.426Z,100697.78
2022-08-12T00:55:20.261Z,100703.16
2022-08-12T00:57:50.702Z,100701.47
2022-08-12T01:00:21.725Z,100700.66
2022-08-12T01:05:40.703Z,100707.09
2022-08-12T01:08:29.211Z,100702.91
2022-08-12T01:11:16.965Z,100706.56
2022-08-12T01:13:49.445Z,100707.63
2022-08-12T01:16:24.143Z,100706.88
2022-08-12T01:18:53.402Z,100702.63
2022-08-12T01:26:43.442Z,100709.13
2022-08-12T01:29:12.887Z,100703.94
2022-08-12T01:31:41.635Z,100689.97
2022-08-12T01:34:35.981Z,100702.56
2022-08-12T01:37:00.378Z,100695.56
2022-08-12T01:39:32.641Z,100686.88
2022-08-12T01:42:05.384Z,100688.81
2022-08-12T01:44:34.050Z,100680.03
2022-08-12T01:50:17.658Z,100675.25
2022-08-12T02:00:54.819Z,100662.66
2022-08-12T02:06:46.498Z,100653.41
2022-08-12T02:09:39.222Z,100653.63
2022-08-12T02:12:39.190Z,100650.56
2022-08-12T02:15:27.461Z,100650.66
2022-08-12T02:18:03.761Z,100644.44
2022-08-12T02:20:52.390Z,100636.72
2022-08-12T02:23:26.583Z,100633.25
2022-08-12T02:25:55.658Z,100632.50
2022-08-12T02:28:24.052Z,100630.81
2022-08-12T02:30:51.055Z,100636.13
2022-08-12T02:33:19.825Z,100633.56
2022-08-12T02:35:47.034Z,100627.44
2022-08-12T02:38:13.627Z,100626.59
2022-08-12T02:40:44.748Z,100622.22
2022-08-12T02:43:27.346Z,100626.75
2022-08-12T02:53:45.203Z,100628.00
2022-08-12T02:56:30.993Z,100625.56
2022-08-12T02:59:00.084Z,100623.91
2022-08-12T03:01:34.288Z,100627.53
2022-08-12T03:04:07.163Z,100631.16
2022-08-12T03:06:53.226Z,100633.06
2022-08-12T03:09:23.768Z,100630.47
2022-08-12T03:12:07.679Z,100629.84
2022-08-12T03:14:38.330Z,100617.28
2022-08-12T03:17:11.380Z,100617.50
2022-08-12T03:20:09.266Z,100614.44
2022-08-12T03:22:26.453Z,100621.47
2022-08-12T03:24:54.688Z,100618.84
2022-08-12T03:27:23.909Z,100615.41
2022-08-12T03:29:53.628Z,100612.91
2022-08-12T03:32:35.853Z,100616.63
2022-08-12T03:35:07.458Z,100612.41
2022-08-12T03:37:36.719Z,100607.28
2022-08-12T03:40:04.040Z,100613.56
2022-08-12T03:45:51.724Z,100608.66
2022-08-12T03:48:40.724Z,100611.47
2022-08-12T03:51:28.115Z,100612.47
2022-08-12T03:54:15.341Z,100609.97
2022-08-12T03:57:01.845Z,100610.97
2022-08-12T03:59:48.347Z,100615.47
2022-08-12T04:02:15.693Z,100613.72
2022-08-12T04:04:45.420Z,100610.31
2022-08-12T04:07:13.818Z,100613.78
2022-08-12T04:09:43.046Z,100606.00
2022-08-12T04:12:32.344Z,100612.25
2022-08-12T04:15:00.836Z,100602.78
2022-08-12T04:17:28.334Z,100606.28
2022-08-12T04:19:59.105Z,100612.41
2022-08-12T04:22:30.540Z,100615.06
2022-08-12T04:25:01.224Z,100607.22
2022-08-12T04:27:30.283Z,100609.03
2022-08-12T04:30:31.589Z,100607.38
2022-08-12T04:32:48.209Z,100605.72
2022-08-12T04:35:16.205Z,100608.38
2022-08-12T04:37:59.335Z,100615.38
2022-08-12T04:40:30.188Z,100617.16
2022-08-12T04:42:57.618Z,100612.53
2022-08-12T04:45:24.955Z,100611.25
2022-08-12T04:47:52.095Z,100614.72
2022-08-12T04:50:35.408Z,100607.75
2022-08-12T04:53:06.625Z,100608.59
2022-08-12T04:55:34.675Z,100619.94
2022-08-12T04:58:01.579Z,100611.19
2022-08-12T05:00:29.788Z,100613.81
2022-08-12T05:02:56.518Z,100617.25
2022-08-12T05:05:24.506Z,100624.19
2022-08-12T05:07:54.981Z,100626.75
2022-08-12T05:10:33.584Z,100624.94
2022-08-12T05:13:05.686Z,100626.69
2022-08-12T05:15:32.377Z,100618.84
2022-08-12T05:18:00.155Z,100625.75
2022-08-12T05:20:29.472Z,100624.81
2022-08-12T05:23:14.477Z,100627.53
2022-08-12T05:25:43.260Z,100630.88
2022-08-12T05:28:10.715Z,100635.22
2022-08-12T05:30:37.326Z,100631.72
2022-08-12T05:33:05.640Z,100636.09
2022-08-12T05:35:36.945Z,100636.94
2022-08-12T05:38:24.218Z,100634.94
2022-08-12T05:40:51.365Z,100627.41
2022-08-12T05:43:18.603Z,100631.28
2022-08-12T05:45:46.954Z,100631.69
2022-08-12T05:48:14.333Z,100638.13
2022-08-12T05:50:42.325Z,100640.25
2022-08-12T05:53:09.368Z,100644.06
2022-08-12T05:55:36.813Z,100641.06
2022-08-12T05:58:04.913Z,100644.56
2022-08-12T06:00:32.233Z,100654.38
2022-08-12T06:03:02.977Z,100649.31
2022-08-12T06:05:34.347Z,100649.47
2022-08-12T06:08:18.980Z,100651.47
2022-08-12T06:10:46.718Z,100649.94
2022-08-12T06:13:25.658Z,100650.84
2022-08-12T06:16:01.882Z,100650.94
2022-08-12T06:18:29.971Z,100653.56
2022-08-12T06:21:00.259Z,100647.34
2022-08-12T06:23:29.019Z,100655.22
2022-08-12T06:25:56.441Z,100661.28
2022-08-12T06:28:23.622Z,100658.56
2022-08-12T06:31:15.246Z,100654.94
2022-08-12T06:33:57.825Z,100663.56
2022-08-12T06:36:29.444Z,100655.47
2022-08-12T06:38:59.105Z,100659.06
2022-08-12T06:42:02.706Z,100656.75
2022-08-12T06:44:32.697Z,100648.34
2022-08-12T06:46:59.486Z,100654.59
2022-08-12T06:49:27.664Z,100654.50
2022-08-12T06:51:56.545Z,100649.09
2022-08-12T06:54:31.623Z,100648.94
2022-08-12T06:57:55.958Z,100647.00
2022-08-12T06:59:47.895Z,100655.59
2022-08-12T07:02:14.586Z,100645.94
2022-08-12T07:04:41.271Z,100648.78
2022-08-12T07:07:09.221Z,100647.66
2022-08-12T07:10:04.339Z,100644.22
2022-08-12T07:12:26.974Z,100644.22
2022-08-12T07:14:56.662Z,100638.31
2022-08-12T07:17:23.405Z,100639.53
2022-08-12T07:19:52.088Z,100638.75
2022-08-12T07:22:18.958Z,100640.00
2022-08-12T07:25:05.693Z,100635.75
2022-08-12T07:27:40.652Z,100644.78
2022-08-12T07:30:08.245Z,100642.03
2022-08-12T07:32:34.847Z,100637.97
2022-08-12T07:35:02.257Z,100645.59
2022-08-12T07:37:28.967Z,100645.22
2022-08-12T07:39:59.749Z,100635.22
2022-08-12T07:42:28.771Z,100644.47
2022-08-12T07:44:56.475Z,100638.88
2022-08-12T07:47:23.906Z,100646.72
2022-08-12T07:50:05.015Z,100648.94
2022-08-12T07:52:34.935Z,100645.84
2022-08-12T07:55:02.535Z,100636.81
2022-08-12T07:57:29.178Z,100638.81
2022-08-12T07:59:56.168Z,100633.75
2022-08-12T08:02:26.896Z,100629.41
2022-08-12T08:04:57.450Z,100629.66
2022-08-12T08:07:25.842Z,100623.47
2022-08-12T08:09:58.389Z,100622.06
2022-08-12T08:12:46.696Z,100629.56
2022-08-12T08:15:15.187Z,100628.06
2022-08-12T08:17:57.806Z,100631.56
2022-08-12T08:20:28.817Z,100622.59
2022-08-12T08:22:57.924Z,100623.56
2022-08-12T08:25:36.043Z,100627.88
2022-08-12T08:28:08.057Z,100625.38
2022-08-12T08:30:38.295Z,100629.41
2022-08-12T08:33:23.493Z,100627.84
2022-08-12T08:35:55.875Z,100628.94
2022-08-12T08:38:32.027Z,100630.19
2022-08-12T08:42:17.698Z,100628.25
2022-08-12T08:44:06.806Z,100624.22
2022-08-12T08:46:37.905Z,100630.09
2022-08-12T08:49:05.718Z,100621.94
2022-08-12T08:51:33.455Z,100614.03
2022-08-12T08:54:00.072Z,100614.88
2022-08-12T08:56:29.175Z,100627.59
2022-08-12T08:58:56.408Z,100617.88
2022-08-12T09:01:23.281Z,100615.47
2022-08-12T09:05:09.570Z,100611.22
2022-08-12T09:06:39.783Z,100605.00
2022-08-12T09:12:16.746Z,100600.19
2022-08-12T09:14:54.635Z,100599.31
2022-08-12T09:17:22.518Z,100607.34
2022-08-12T09:19:56.866Z,100602.56
2022-08-12T09:25:11.048Z,100602.41
2022-08-12T09:28:04.052Z,100602.69
2022-08-12T09:30:42.151Z,100606.06
2022-08-12T09:33:15.116Z,100608.88
2022-08-12T09:36:04.255Z,100608.44
2022-08-12T09:38:32.061Z,100608.72
2022-08-12T09:42:09.172Z,100604.25
2022-08-12T09:44:38.002Z,100600.28
2022-08-12T09:46:54.535Z,100606.75
2022-08-12T09:49:24.157Z,100595.31
2022-08-12T09:51:54.309Z,100601.09
2022-08-12T09:54:33.234Z,100595.16
2022-08-12T09:58:45.593Z,100594.91
2022-08-12T10:00:17.900Z,100592.66
2022-08-12T10:03:05.630Z,100594.78
2022-08-12T10:06:19.991Z,100593.78
2022-08-12T10:08:27.401Z,100583.72
2022-08-12T10:11:18.570Z,100584.53
2022-08-12T10:13:48.701Z,100582.16
2022-08-12T10:18:55.534Z,100579.81
2022-08-12T10:21:36.420Z,100585.16
2022-08-12T10:24:07.521Z,100582.22
2022-08-12T10:26:55.791Z,100582.34
2022-08-12T10:30:38.359Z,100578.06
2022-08-12T10:33:02.248Z,100567.97
2022-08-12T10:35:16.149Z,100569.69
2022-08-12T10:38:34.383Z,100556.91
2022-08-12T10:40:33.927Z,100550.19
2022-08-12T10:43:21.696Z,100551.22
2022-08-12T10:45:49.579Z,100554.94
2022-08-12T10:48:26.828Z,100549.88
2022-08-12T10:52:02.648Z,100543.72
2022-08-12T10:54:00.286Z,100545.06
2022-08-12T10:56:34.947Z,100545.13
2022-08-12T10:59:01.718Z,100544.16
2022-08-12T11:04:16.696Z,100539.59
2022-08-12T11:04:24.606Z,100536.94
2022-08-12T11:07:07.997Z,100541.28
2022-08-12T11:10:00.444Z,100538.56
2022-08-12T11:12:56.033Z,100534.03
2022-08-12T11:15:32.802Z,100535.53
2022-08-12T11:18:07.493Z,100529.47
2022-08-12T11:20:39.239Z,100517.72
2022-08-12T11:23:25.669Z,100521.94
2022-08-12T11:25:58.039Z,100515.19
2022-08-12T11:28:34.945Z,100514.31
2022-08-12T11:31:05.891Z,100511.63
2022-08-12T11:34:06.466Z,100509.94
2022-08-12T11:36:21.768Z,100506.94
2022-08-12T11:38:50.910Z,100502.19
2022-08-12T11:41:27.980Z,100509.84
2022-08-12T11:43:59.411Z,100506.13
2022-08-12T11:46:44.117Z,100497.72
2022-08-12T11:49:30.563Z,100495.66
2022-08-12T11:52:01.038Z,100499.16
2022-08-12T11:54:29.624Z,100494.25
2022-08-12T11:56:59.956Z,100492.22
2022-08-12T12:02:18.808Z,100483.81
2022-08-12T12:04:46.934Z,100484.25
2022-08-12T12:07:22.644Z,100476.22
2022-08-12T12:10:00.383Z,100473.66
2022-08-12T12:12:27.013Z,100467.03
2022-08-12T12:14:54.992Z,100469.34
2022-08-12T12:17:24.887Z,100468.97
2022-08-12T12:19:53.143Z,100456.66
2022-08-12T12:22:23.060Z,100463.63
2022-08-12T12:24:51.286Z,100459.28
2022-08-12T12:27:19.554Z,100454.94
2022-08-12T12:30:18.875Z,100452.22
2022-08-12T12:32:33.397Z,100448.28
2022-08-12T12:35:13.981Z,100447.91
2022-08-12T12:38:03.688Z,100443.38
2022-08-12T12:40:32.935Z,100435.91
2022-08-12T12:43:05.209Z,100439.97
2022-08-12T12:45:34.260Z,100431.25
2022-08-12T12:48:09.794Z,100431.75
2022-08-12T12:50:45.566Z,100431.50
2022-08-12T12:54:07.452Z,100428.31
2022-08-12T12:56:16.697Z,100423.63
2022-08-12T12:58:44.609Z,100417.41
2022-08-12T13:01:26.792Z,100407.47
2022-08-12T13:04:01.967Z,100413.38
2022-08-12T13:06:31.673Z,100416.28
2022-08-12T13:09:03.107Z,100409.34
2022-08-12T13:11:41.781Z,100405.13
2022-08-12T13:14:29.285Z,100407.78
2022-08-12T13:17:02.950Z,100405.06
2022-08-12T13:19:38.842Z,100409.94
2022-08-12T13:22:19.657Z,100414.03
2022-08-12T13:24:52.156Z,100403.34
2022-08-12T13:27:22.641Z,100407.88
2022-08-12T13:29:56.208Z,100405.44
2022-08-12T13:32:31.395Z,100396.06
2022-08-12T13:35:20.296Z,100393.72
2022-08-12T13:37:56.245Z,100386.22
2022-08-12T13:43:01.795Z,100377.56
2022-08-12T13:45:31.022Z,100379.69
2022-08-12T13:50:38.106Z,100382.69
2022-08-12T13:53:26.132Z,100379.22
2022-08-12T13:56:06.702Z,100359.44
2022-08-12T13:58:37.419Z,100369.28
2022-08-12T14:01:06.334Z,100374.34
2022-08-12T14:03:51.128Z,100374.34
2022-08-12T14:06:20.289Z,100369.59
2022-08-12T14:08:52.263Z,100365.81
2022-08-12T14:11:19.424Z,100364.38
2022-08-12T14:14:05.147Z,100365.91
2022-08-12T14:16:49.103Z,100355.38
2022-08-12T14:19:24.319Z,100352.06
2022-08-12T14:21:59.191Z,100346.06
2022-08-12T14:24:27.354Z,100343.72
2022-08-12T14:26:58.769Z,100348.09
2022-08-12T14:29:55.772Z,100337.28
2022-08-12T14:32:17.701Z,100347.22
2022-08-12T14:34:47.059Z,100338.84
2022-08-12T14:37:55.538Z,100337.97
2022-08-12T14:40:01.331Z,100338.44
2022-08-12T14:42:28.386Z,100341.53
2022-08-12T14:45:01.214Z,100351.59
2022-08-12T14:47:29.313Z,100344.03
2022-08-12T14:50:37.431Z,100327.53
2022-08-12T14:54:55.983Z,100334.59
2022-08-12T14:58:32.076Z,100329.06
2022-08-12T15:01:21.515Z,100314.38
2022-08-12T15:03:57.853Z,100327.44
2022-08-12T15:06:39.388Z,100327.09
2022-08-12T15:09:12.459Z,100322.03
2022-08-12T15:11:55.699Z,100318.28
2022-08-12T15:14:27.446Z,100311.88
2022-08-12T15:16:54.219Z,100318.94
2022-08-12T15:20:10.925Z,100311.53
2022-08-12T15:22:39.509Z,100316.47
2022-08-12T15:24:54.365Z,100319.75
2022-08-12T15:27:22.344Z,100315.66
2022-08-12T15:29:58.635Z,100311.25
2022-08-12T15:32:32.431Z,100316.94
2022-08-12T15:35:00.765Z,100314.50
2022-08-12T15:38:08.039Z,100306.03
2022-08-12T15:40:14.690Z,100310.59
2022-08-12T15:42:46.759Z,100313.72
2022-08-12T15:45:23.464Z,100311.28
2022-08-12T15:47:53.138Z,100312.47
2022-08-12T15:50:32.509Z,100312.53
2022-08-12T15:53:14.195Z,100310.31
2022-08-12T15:55:46.232Z,100304.56
2022-08-12T15:58:13.570Z,100306.97
2022-08-12T16:00:45.283Z,100302.06
2022-08-12T16:03:13.627Z,100302.00
2022-08-12T16:06:16.942Z,100300.03
2022-08-12T16:08:36.517Z,100314.31
2022-08-12T16:11:07.263Z,100308.22
2022-08-12T16:13:44.317Z,100311.78
2022-08-12T16:16:22.568Z,100299.53
2022-08-12T16:18:51.444Z,100298.28
2022-08-12T16:21:51.847Z,100300.25
2022-08-12T16:24:08.121Z,100301.81
2022-08-12T16:26:34.910Z,100298.19
2022-08-12T16:29:15.382Z,100301.31
2022-08-12T16:31:44.605Z,100296.53
2022-08-12T16:34:25.803Z,100299.09
2022-08-12T16:37:07.777Z,100292.59
2022-08-12T16:39:59.823Z,100293.03
2022-08-12T16:42:28.408Z,100293.34
2022-08-12T16:44:59.519Z,100292.63
2022-08-12T16:47:27.934Z,100298.44
2022-08-12T16:49:57.887Z,100290.41
2022-08-12T16:52:25.699Z,100288.00
2022-08-12T16:54:53.691Z,100288.59
2022-08-12T16:57:43.046Z,100293.38
2022-08-12T17:00:11.507Z,100291.81
2022-08-12T17:02:40.555Z,100290.38
2022-08-12T17:05:11.466Z,100290.38
2022-08-12T17:07:43.118Z,100290.25
2022-08-12T17:10:18.526Z,100289.84
2022-08-12T17:13:09.447Z,100297.44
2022-08-12T17:15:56.912Z,100290.94
2022-08-12T17:18:43.744Z,100295.72
2022-08-12T17:21:17.321Z,100299.94
2022-08-12T17:23:53.396Z,100291.63
2022-08-12T17:26:22.397Z,100293.97
2022-08-12T17:28:56.160Z,100289.88
2022-08-12T17:32:00.244Z,100298.44
2022-08-12T17:34:29.558Z,100297.03
2022-08-12T17:37:05.072Z,100298.44
2022-08-12T17:40:12.592Z,100301.50
2022-08-12T17:42:34.424Z,100290.91
2022-08-12T17:45:16.923Z,100293.28
2022-08-12T17:48:04.857Z,100288.72
2022-08-12T17:50:36.925Z,100287.81
2022-08-12T17:53:08.133Z,100284.09
2022-08-12T17:55:44.083Z,100295.59
2022-08-12T17:58:15.351Z,100294.44
2022-08-12T18:00:45.665Z,100282.81
2022-08-12T18:04:04.448Z,100285.53
2022-08-12T18:06:13.689Z,100292.16
2022-08-12T18:08:54.160Z,100286.28
2022-08-12T18:12:03.600Z,100286.34
2022-08-12T18:14:30.338Z,100293.06
2022-08-12T18:17:00.700Z,100296.09
2022-08-12T18:20:03.582Z,100293.94
2022-08-12T18:22:22.311Z,100301.34
2022-08-12T18:26:09.869Z,100295.06
2022-08-12T18:28:16.582Z,100302.00
2022-08-12T18:30:52.739Z,100299.09
2022-08-12T18:33:23.836Z,100304.28
2022-08-12T18:35:53.725Z,100302.44
2022-08-12T18:38:25.407Z,100297.00
2022-08-12T18:41:22.501Z,100301.09
2022-08-12T18:44:09.821Z,100296.97
2022-08-12T18:46:54.218Z,100295.00
2022-08-12T18:52:03.858Z,100299.28
2022-08-12T18:54:35.294Z,100298.31
2022-08-12T18:57:05.034Z,100294.28
2022-08-12T19:00:00.043Z,100297.50
2022-08-12T19:02:23.132Z,100301.84
2022-08-12T19:04:53.233Z,100296.22
2022-08-12T19:07:23.684Z,100304.75
2022-08-12T19:09:58.861Z,100307.03
2022-08-12T19:12:57.054Z,100302.81
2022-08-12T19:15:26.074Z,100300.09
2022-08-12T19:18:00.367Z,100303.28
2022-08-12T19:20:29.878Z,100309.38
2022-08-12T19:22:57.934Z,100312.72
2022-08-12T19:26:01.605Z,100309.69
2022-08-12T19:28:29.306Z,100303.13
2022-08-12T19:31:17.476Z,100307.19
2022-08-12T19:34:00.921Z,100305.91
2022-08-12T19:36:34.622Z,100315.25
2022-08-12T19:39:02.924Z,100313.97
2022-08-12T19:42:01.410Z,100319.06
2022-08-12T19:44:31.080Z,100318.00
2022-08-12T19:47:00.676Z,100318.50
2022-08-12T19:49:28.225Z,100327.28
2022-08-12T19:51:55.525Z,100333.19
2022-08-12T19:54:23.365Z,100331.16
2022-08-12T19:56:58.549Z,100336.97
2022-08-12T20:00:04.153Z,100345.47
2022-08-12T20:02:33.369Z,100346.81
2022-08-12T20:06:05.881Z,100357.72
2022-08-12T20:07:56.984Z,100351.91
2022-08-12T20:10:35.657Z,100357.50
2022-08-12T20:13:18.499Z,100357.84
2022-08-12T20:15:59.706Z,100359.34
2022-08-12T20:18:44.511Z,100358.03
2022-08-12T20:21:16.128Z,100366.19
2022-08-12T20:24:00.564Z,100362.97
2022-08-12T20:26:28.363Z,100367.13
2022-08-12T20:28:55.518Z,100365.81
2022-08-12T20:31:22.099Z,100363.66
2022-08-12T20:33:56.652Z,100362.97
2022-08-12T20:36:40.713Z,100361.63
2022-08-12T20:39:34.041Z,100362.09
2022-08-12T20:42:07.305Z,100369.56
2022-08-12T20:44:38.896Z,100367.25
2022-08-12T20:47:17.783Z,100362.34
2022-08-12T20:49:46.605Z,100369.88
2022-08-12T20:52:34.153Z,100372.91
2022-08-12T20:55:02.478Z,100373.25
2022-08-12T20:57:37.536Z,100380.63
2022-08-12T21:00:15.317Z,100368.59
2022-08-12T21:02:46.718Z,100369.03
2022-08-12T21:06:11.974Z,100365.94
2022-08-12T21:08:26.663Z,100368.19
2022-08-12T21:10:58.932Z,100368.53
2022-08-12T21:13:26.729Z,100368.13
2022-08-12T21:15:55.195Z,100369.41
2022-08-12T21:18:28.987Z,100367.97
2022-08-12T21:20:58.919Z,100367.28
2022-08-12T21:23:31.096Z,100377.13
2022-08-12T21:26:06.083Z,100370.16
2022-08-12T21:28:38.262Z,100373.00
2022-08-12T21:32:36.168Z,100371.38
2022-08-12T21:34:08.113Z,100377.75
2022-08-12T21:36:43.351Z,100372.84
2022-08-12T21:39:21.830Z,100373.00
2022-08-12T21:41:51.753Z,100366.13
2022-08-12T21:44:24.272Z,100362.91
2022-08-12T21:47:21.092Z,100365.28
2022-08-12T21:50:04.070Z,100367.44
2022-08-12T21:52:36.289Z,100373.84
2022-08-12T21:55:08.250Z,100371.78
2022-08-12T21:57:51.425Z,100368.44
2022-08-12T22:00:31.943Z,100365.09
2022-08-12T22:04:01.627Z,100368.84
2022-08-12T22:06:31.419Z,100369.25
2022-08-12T22:09:17.210Z,100365.97
2022-08-12T22:11:56.521Z,100365.44
2022-08-12T22:14:28.193Z,100359.59
2022-08-12T22:16:57.132Z,100361.53
2022-08-12T22:19:23.900Z,100360.25
2022-08-12T22:21:53.717Z,100365.81
2022-08-12T22:24:26.552Z,100365.81
2022-08-12T22:27:17.948Z,100355.56
2022-08-12T22:30:06.949Z,100359.28
2022-08-12T22:32:33.883Z,100353.53
2022-08-12T22:35:24.054Z,100358.97
2022-08-12T22:37:53.702Z,100360.19
2022-08-12T22:40:22.609Z,100362.16
2022-08-12T22:43:15.309Z,100365.94
2022-08-12T22:46:02.455Z,100366.22
2022-08-12T22:48:30.581Z,100356.00
2022-08-12T22:50:59.297Z,100365.00
2022-08-12T22:53:36.254Z,100363.34
2022-08-12T22:56:09.081Z,100365.25
2022-08-12T22:58:41.370Z,100367.94
2022-08-12T23:01:10.985Z,100375.94
2022-08-12T23:03:48.032Z,100367.38
2022-08-12T23:06:16.652Z,100360.56
2022-08-12T23:08:43.588Z,100364.25
2022-08-12T23:11:10.457Z,100353.84
2022-08-12T23:13:54.646Z,100358.50
2022-08-12T23:16:31.743Z,100356.94
2022-08-12T23:19:10.639Z,100352.72
2022-08-12T23:22:06.140Z,100358.28
2022-08-12T23:24:53.843Z,100355.78
2022-08-12T23:27:44.277Z,100356.97
2022-08-12T23:30:25.121Z,100350.16
2022-08-12T23:32:59.731Z,100353.00
2022-08-12T23:35:45.798Z,100342.81
2022-08-12T23:38:30.946Z,100351.66
2022-08-12T23:41:01.659Z,100342.16
2022-08-12T23:43:40.071Z,100341.38
2022-08-12T23:46:10.699Z,100347.56
2022-08-12T23:48:38.145Z,100342.44
2022-08-12T23:51:21.709Z,100354.81
2022-08-12T23:53:50.606Z,100355.84
2022-08-12T23:56:17.675Z,100348.22
2022-08-12T23:58:52.790Z,100342.22
